DLH05M EDDF-LOWS
Flight info
| Callsign | DLH05M |
|---|---|
| Flight time | N/A |
| Altitude | 29000 |
| Route | CINDY8S/18 CINDY Z74 HAREM DCT ASLEP DCT TAKUT DCT DINKU L603 OLETU T702 BADIT BADIT2R |
| Aircraft | A319/M-SDE3FGHIRWY/LB1 |
Departure
| Time | 2026-05-05 18:21 |
|---|---|
| Airport | Frankfurt Main Airport (EDDF) |
Arrival
| Time | N/A |
|---|---|
| Airport | Salzburg Airport (LOWS) |
| Time | Latitude | Longitude | Altitude | Speed | Heading |
|---|---|---|---|---|---|
| 2026-05-05 17:28 | 50.04903 | 8.59109 | 369 ft | 0 kts | 339° |
| 2026-05-05 17:52 | 50.04895 | 8.59113 | 367 ft | 4 kts | 339° |
| 2026-05-05 17:52 | 50.04869 | 8.59128 | 369 ft | 4 kts | 339° |
| 2026-05-05 17:53 | 50.04844 | 8.59143 | 371 ft | 4 kts | 339° |
| 2026-05-05 17:53 | 50.04828 | 8.59152 | 368 ft | 0 kts | 339° |
| 2026-05-05 17:55 | 50.04829 | 8.59150 | 368 ft | 1 kts | 329° |
| 2026-05-05 17:55 | 50.04820 | 8.59115 | 368 ft | 8 kts | 234° |
| 2026-05-05 17:56 | 50.04794 | 8.59052 | 370 ft | 7 kts | 243° |
| 2026-05-05 17:56 | 50.04774 | 8.58973 | 369 ft | 9 kts | 249° |
| 2026-05-05 17:56 | 50.04750 | 8.58870 | 371 ft | 9 kts | 250° |
| 2026-05-05 17:56 | 50.04742 | 8.58784 | 368 ft | 8 kts | 283° |
| 2026-05-05 17:57 | 50.04793 | 8.58732 | 366 ft | 10 kts | 342° |
| 2026-05-05 17:57 | 50.04859 | 8.58698 | 365 ft | 10 kts | 339° |
| 2026-05-05 17:57 | 50.04926 | 8.58658 | 362 ft | 11 kts | 335° |
| 2026-05-05 17:57 | 50.04948 | 8.58577 | 365 ft | 8 kts | 255° |
| 2026-05-05 17:58 | 50.04922 | 8.58455 | 360 ft | 12 kts | 249° |
| 2026-05-05 17:58 | 50.04891 | 8.58329 | 361 ft | 15 kts | 250° |
| 2026-05-05 17:58 | 50.04857 | 8.58190 | 362 ft | 13 kts | 249° |
| 2026-05-05 17:58 | 50.04835 | 8.58095 | 363 ft | 9 kts | 251° |
| 2026-05-05 17:59 | 50.04822 | 8.58038 | 361 ft | 0 kts | 250° |
| 2026-05-05 18:02 | 50.04813 | 8.57999 | 360 ft | 13 kts | 249° |
| 2026-05-05 18:02 | 50.04736 | 8.57916 | 358 ft | 14 kts | 193° |
| 2026-05-05 18:03 | 50.04684 | 8.57806 | 361 ft | 16 kts | 250° |
| 2026-05-05 18:03 | 50.04638 | 8.57615 | 360 ft | 19 kts | 249° |
| 2026-05-05 18:03 | 50.04593 | 8.57424 | 361 ft | 19 kts | 251° |
| 2026-05-05 18:03 | 50.04549 | 8.57235 | 360 ft | 18 kts | 250° |
| 2026-05-05 18:04 | 50.04505 | 8.57051 | 359 ft | 18 kts | 249° |
| 2026-05-05 18:04 | 50.04462 | 8.56878 | 362 ft | 16 kts | 249° |
| 2026-05-05 18:04 | 50.04421 | 8.56710 | 361 ft | 17 kts | 249° |
| 2026-05-05 18:04 | 50.04381 | 8.56530 | 360 ft | 18 kts | 250° |
| 2026-05-05 18:05 | 50.04338 | 8.56344 | 358 ft | 19 kts | 250° |
| 2026-05-05 18:05 | 50.04293 | 8.56151 | 361 ft | 19 kts | 250° |
| 2026-05-05 18:05 | 50.04245 | 8.55955 | 356 ft | 20 kts | 249° |
| 2026-05-05 18:05 | 50.04194 | 8.55750 | 359 ft | 21 kts | 249° |
| 2026-05-05 18:06 | 50.04142 | 8.55536 | 352 ft | 21 kts | 249° |
| 2026-05-05 18:06 | 50.04108 | 8.55391 | 358 ft | 21 kts | 250° |
| 2026-05-05 18:06 | 50.04053 | 8.55160 | 361 ft | 14 kts | 249° |
| 2026-05-05 18:06 | 50.04043 | 8.55120 | 356 ft | 2 kts | 249° |
| 2026-05-05 18:07 | 50.04018 | 8.55016 | 357 ft | 17 kts | 249° |
| 2026-05-05 18:07 | 50.03973 | 8.54831 | 356 ft | 20 kts | 250° |
| 2026-05-05 18:07 | 50.03925 | 8.54623 | 350 ft | 21 kts | 250° |
| 2026-05-05 18:07 | 50.03869 | 8.54398 | 348 ft | 23 kts | 244° |
| 2026-05-05 18:08 | 50.03789 | 8.54178 | 351 ft | 24 kts | 249° |
| 2026-05-05 18:08 | 50.03730 | 8.53930 | 347 ft | 25 kts | 250° |
| 2026-05-05 18:08 | 50.03672 | 8.53685 | 348 ft | 24 kts | 249° |
| 2026-05-05 18:08 | 50.03611 | 8.53447 | 340 ft | 21 kts | 248° |
| 2026-05-05 18:09 | 50.03561 | 8.53245 | 337 ft | 18 kts | 249° |
| 2026-05-05 18:09 | 50.03519 | 8.53063 | 335 ft | 18 kts | 249° |
| 2026-05-05 18:09 | 50.03506 | 8.53011 | 338 ft | 1 kts | 250° |
| 2026-05-05 18:09 | 50.03505 | 8.53008 | 335 ft | 0 kts | 250° |
| 2026-05-05 18:10 | 50.03503 | 8.52998 | 336 ft | 2 kts | 251° |
| 2026-05-05 18:10 | 50.03496 | 8.52967 | 337 ft | 4 kts | 251° |
| 2026-05-05 18:10 | 50.03489 | 8.52938 | 335 ft | 0 kts | 249° |
| 2026-05-05 18:12 | 50.03487 | 8.52927 | 336 ft | 2 kts | 249° |
| 2026-05-05 18:13 | 50.03480 | 8.52899 | 337 ft | 4 kts | 246° |
| 2026-05-05 18:13 | 50.03466 | 8.52855 | 335 ft | 5 kts | 245° |
| 2026-05-05 18:13 | 50.03463 | 8.52845 | 337 ft | 0 kts | 245° |
| 2026-05-05 18:13 | 50.03462 | 8.52840 | 337 ft | 1 kts | 245° |
| 2026-05-05 18:14 | 50.03455 | 8.52818 | 335 ft | 3 kts | 245° |
| 2026-05-05 18:14 | 50.03448 | 8.52792 | 334 ft | 0 kts | 247° |
| 2026-05-05 18:15 | 50.03448 | 8.52791 | 334 ft | 1 kts | 247° |
| 2026-05-05 18:15 | 50.03447 | 8.52790 | 334 ft | 0 kts | 247° |
| 2026-05-05 18:15 | 50.03440 | 8.52762 | 334 ft | 6 kts | 249° |
| 2026-05-05 18:16 | 50.03431 | 8.52724 | 333 ft | 0 kts | 249° |
| 2026-05-05 18:17 | 50.03430 | 8.52723 | 333 ft | 1 kts | 249° |
| 2026-05-05 18:17 | 50.03415 | 8.52661 | 332 ft | 11 kts | 249° |
| 2026-05-05 18:17 | 50.03368 | 8.52592 | 335 ft | 5 kts | 181° |
| 2026-05-05 18:18 | 50.03364 | 8.52592 | 335 ft | 1 kts | 180° |
| 2026-05-05 18:18 | 50.03363 | 8.52592 | 335 ft | 0 kts | 180° |
| 2026-05-05 18:18 | 50.03358 | 8.52592 | 336 ft | 0 kts | 180° |
| 2026-05-05 18:20 | 50.03356 | 8.52592 | 336 ft | 2 kts | 180° |
| 2026-05-05 18:21 | 50.03171 | 8.52592 | 336 ft | 68 kts | 180° |
| 2026-05-05 18:21 | 50.02432 | 8.52611 | 336 ft | 140 kts | 179° |
| 2026-05-05 18:21 | 50.01313 | 8.52629 | 647 ft | 169 kts | 180° |
| 2026-05-05 18:21 | 50.00086 | 8.52651 | 1327 ft | 186 kts | 180° |
| 2026-05-05 18:22 | 49.98697 | 8.52661 | 2050 ft | 208 kts | 182° |
| 2026-05-05 18:22 | 49.97221 | 8.52953 | 2803 ft | 230 kts | 160° |
| 2026-05-05 18:22 | 49.95923 | 8.54544 | 3642 ft | 259 kts | 129° |
| 2026-05-05 18:22 | 49.94877 | 8.57053 | 3893 ft | 277 kts | 122° |
| 2026-05-05 18:23 | 49.94106 | 8.59643 | 3989 ft | 255 kts | 103° |
| 2026-05-05 18:23 | 49.93997 | 8.61450 | 4409 ft | 254 kts | 91° |
| 2026-05-05 18:23 | 49.93922 | 8.65268 | 5790 ft | 276 kts | 95° |
| 2026-05-05 18:23 | 49.93477 | 8.68175 | 7016 ft | 280 kts | 115° |
| 2026-05-05 18:24 | 49.92832 | 8.69957 | 7863 ft | 282 kts | 128° |
| 2026-05-05 18:24 | 49.91470 | 8.72097 | 9138 ft | 284 kts | 146° |
| 2026-05-05 18:24 | 49.89830 | 8.73900 | 10157 ft | 300 kts | 146° |
| 2026-05-05 18:24 | 49.88230 | 8.76276 | 10580 ft | 338 kts | 132° |
| 2026-05-05 18:25 | 49.86924 | 8.79458 | 10763 ft | 349 kts | 120° |
| 2026-05-05 18:25 | 49.86160 | 8.81668 | 10809 ft | 339 kts | 121° |
| 2026-05-05 18:25 | 49.84681 | 8.85880 | 10825 ft | 335 kts | 121° |
| 2026-05-05 18:25 | 49.83553 | 8.89027 | 10826 ft | 334 kts | 122° |
| 2026-05-05 18:26 | 49.82416 | 8.92162 | 10826 ft | 334 kts | 122° |
| 2026-05-05 18:26 | 49.81271 | 8.95298 | 10830 ft | 334 kts | 122° |
| 2026-05-05 18:26 | 49.80127 | 8.98428 | 10833 ft | 334 kts | 122° |